Time;durP1;ratioP1;P1;durP2;ratioP2;P2;SDS_P1;SDS_P2;PMS_P1;PMS_P2;Temp;Humidity;BMP_temperature;BMP_pressure;BME280_temperature;BME280_humidity;BME280_pressure;Samples;Min_cycle;Max_cycle;Signal;HPM_P1;HPM_P2
2022/11/19 00:02:00;;;;;;;11.32;5.18;;;;;;;10.58;100.00;99282.22;4991752;28;20117;-67
2022/11/19 00:04:25;;;;;;;10.38;4.47;;;;;;;10.51;100.00;99267.44;4991279;28;20022;-67
2022/11/19 00:06:51;;;;;;;5.97;3.35;;;;;;;10.56;100.00;99281.41;4991861;28;20478;-67
2022/11/19 00:09:17;;;;;;;7.65;3.55;;;;;;;10.51;100.00;99287.84;4992081;28;20084;-67
2022/11/19 00:14:26;;;;;;;;;;;;;;;10.55;100.00;99286.81;4992310;28;20124;-67
2022/11/19 00:16:51;;;;;;;9.23;3.55;;;;;;;10.54;100.00;99280.59;4992094;28;19913;-67
2022/11/19 00:19:17;;;;;;;7.85;3.63;;;;;;;10.52;100.00;99282.50;4991800;28;20026;-67
2022/11/19 00:21:42;;;;;;;7.22;3.95;;;;;;;10.55;100.00;99277.03;4991756;28;20026;-67
2022/11/19 00:24:08;;;;;;;7.18;3.55;;;;;;;10.57;100.00;99280.50;4991838;28;20450;-67
2022/11/19 00:26:33;;;;;;;8.15;3.97;;;;;;;10.59;100.00;99278.63;4992991;28;20478;-67
2022/11/19 00:28:58;;;;;;;9.20;3.20;;;;;;;10.56;100.00;99272.56;4991550;28;20026;-67
2022/11/19 00:31:24;;;;;;;9.90;3.33;;;;;;;10.63;100.00;99284.66;4991337;28;20030;-68
2022/11/19 00:33:49;;;;;;;6.72;3.88;;;;;;;10.54;100.00;99269.97;4991169;28;20034;-68
2022/11/19 00:36:15;;;;;;;6.07;3.80;;;;;;;10.56;100.00;99278.75;4991368;28;20030;-69
2022/11/19 00:38:41;;;;;;;7.25;3.90;;;;;;;10.50;100.00;99273.72;4989931;28;20023;-68
2022/11/19 00:41:07;;;;;;;7.50;3.90;;;;;;;10.59;100.00;99275.94;4990962;28;20030;-68
2022/11/19 00:43:48;;;;;;;9.25;4.22;;;;;;;10.62;100.00;99278.47;4991356;28;20030;-67
2022/11/19 00:46:21;;;;;;;6.88;4.00;;;;;;;10.57;100.00;99277.84;4991615;28;20093;-68
2022/11/19 00:48:48;;;;;;;7.53;3.83;;;;;;;10.53;100.00;99276.22;5006541;28;20034;-67
2022/11/19 00:51:14;;;;;;;9.68;3.75;;;;;;;10.48;100.00;99259.63;4991593;28;20034;-67
2022/11/19 00:53:40;;;;;;;5.88;3.63;;;;;;;10.58;100.00;99273.38;5006489;28;20541;-66
2022/11/19 00:56:11;;;;;;;5.57;3.25;;;;;;;10.54;100.00;99269.97;4991757;28;20141;-67
2022/11/19 00:58:37;;;;;;;7.38;3.20;;;;;;;10.55;100.00;99266.41;4991541;28;20512;-66
2022/11/19 01:01:04;;;;;;;5.88;3.40;;;;;;;10.57;100.00;99283.16;4990853;28;20030;-66
2022/11/19 01:03:29;;;;;;;6.85;3.80;;;;;;;10.46;100.00;99260.63;4990413;28;20478;-67
2022/11/19 01:05:55;;;;;;;5.57;3.13;;;;;;;10.51;100.00;99271.91;4990726;28;20038;-66
2022/11/19 01:08:20;;;;;;;6.68;3.47;;;;;;;10.51;100.00;99263.91;4990564;28;20038;-66
2022/11/19 01:10:46;;;;;;;6.85;3.60;;;;;;;10.50;100.00;99267.53;4990817;28;20034;-65
2022/11/19 01:15:56;;;;;;;7.35;3.50;;;;;;;10.43;100.00;99261.63;4990800;28;20061;-67
2022/11/19 01:18:21;;;;;;;5.43;2.92;;;;;;;10.52;100.00;99281.63;4991324;28;20415;-66
2022/11/19 01:20:47;;;;;;;6.35;3.70;;;;;;;10.54;100.00;99277.94;4992034;28;20029;-66
2022/11/19 01:23:13;;;;;;;8.18;3.88;;;;;;;10.56;100.00;99278.75;5010813;28;20681;-66
2022/11/19 01:25:38;;;;;;;9.88;3.75;;;;;;;10.57;100.00;99280.50;5011589;28;20444;-67
2022/11/19 01:28:04;;;;;;;7.22;3.25;;;;;;;10.58;100.00;99282.22;5014403;28;20064;-66
2022/11/19 01:30:30;;;;;;;6.07;2.92;;;;;;;10.60;100.00;99285.69;5014583;28;20030;-66
2022/11/19 01:32:56;;;;;;;6.22;2.90;;;;;;;10.59;100.00;99288.41;5010480;28;20026;-66
2022/11/19 01:35:21;;;;;;;6.72;2.97;;;;;;;10.56;100.00;99289.38;5001805;28;20053;-66
2022/11/19 01:37:47;;;;;;;7.65;3.10;;;;;;;10.58;100.00;99290.19;5008850;28;20022;-66
2022/11/19 01:40:14;;;;;;;5.57;3.33;;;;;;;10.61;100.00;99292.72;4994773;28;20113;-67
2022/11/19 01:42:48;;;;;;;8.70;3.90;;;;;;;10.64;100.00;99287.25;4994530;28;20036;-67
2022/11/19 01:45:53;;;;;;;11.50;4.50;;;;;;;10.65;100.00;99290.78;4994841;28;20446;-66
2022/11/19 01:48:25;;;;;;;8.55;4.45;;;;;;;10.64;100.00;99291.72;4951611;28;20042;-67
2022/11/19 01:50:55;;;;;;;8.77;4.78;;;;;;;10.69;100.00;99295.03;4994534;28;20524;-67
2022/11/19 01:53:25;;;;;;;7.55;4.10;;;;;;;10.69;100.00;99297.72;4994576;28;20026;-66
2022/11/19 01:55:51;;;;;;;8.30;3.85;;;;;;;10.70;100.00;99295.88;4994663;28;20026;-66
2022/11/19 01:58:21;;;;;;;8.15;3.90;;;;;;;10.67;100.00;99293.38;4994411;28;20049;-66
2022/11/19 02:00:47;;;;;;;6.28;3.20;;;;;;;10.67;100.00;99296.03;4993510;28;20026;-65
2022/11/19 02:03:14;;;;;;;5.43;2.95;;;;;;;10.64;100.00;99297.88;4993851;28;20432;-65
2022/11/19 02:05:41;;;;;;;7.95;3.40;;;;;;;10.64;100.00;99297.88;4994226;28;20022;-65
2022/11/19 02:08:28;;;;;;;8.45;4.78;;;;;;;10.63;100.00;99301.50;4994219;28;20045;-65
2022/11/19 02:11:28;;;;;;;10.88;4.70;;;;;;;10.64;100.00;99297.88;4993738;28;20096;-65
2022/11/19 02:14:12;;;;;;;7.80;4.38;;;;;;;10.67;100.00;99291.59;4963242;28;20077;-66
2022/11/19 02:16:37;;;;;;;;;;;;;;;10.73;100.00;99301.06;4994688;28;20034;-65
2022/11/19 02:19:21;;;;;;;6.88;4.10;;;;;;;10.70;100.00;99295.88;4994058;28;19910;-64
2022/11/19 02:22:13;;;;;;;7.05;4.20;;;;;;;10.67;100.00;99293.38;4994121;28;20068;-65
2022/11/19 02:24:49;;;;;;;7.40;4.00;;;;;;;10.64;100.00;99297.03;4993885;28;20030;-66
2022/11/19 02:27:56;;;;;;;6.50;4.05;;;;;;;10.62;100.00;99296.25;4994056;28;20035;-65
2022/11/19 02:30:21;;;;;;;6.80;3.88;;;;;;;10.65;100.00;99304.09;5010071;28;20038;-66
2022/11/19 02:32:57;;;;;;;7.88;3.53;;;;;;;10.66;100.00;99295.16;5013557;28;20679;-67
2022/11/19 02:35:39;;;;;;;5.72;3.50;;;;;;;10.65;100.00;99298.75;5013351;28;20116;-66
2022/11/19 02:38:27;;;;;;;8.83;3.73;;;;;;;10.68;100.00;99308.38;5013475;28;20115;-68
2022/11/19 02:41:32;;;;;;;7.15;4.50;;;;;;;10.67;100.00;99307.53;5009007;28;20041;-68
2022/11/19 02:44:57;;;;;;;7.18;4.25;;;;;;;10.61;100.00;99286.50;4993448;28;20031;-67
2022/11/19 02:46:49;;;;;;;7.03;4.25;;;;;;;10.66;100.00;99316.44;4992499;28;20034;-67
2022/11/19 02:49:17;;;;;;;7.38;4.20;;;;;;;10.58;100.00;99303.50;4993459;28;20026;-67
2022/11/19 02:51:43;;;;;;;7.15;4.30;;;;;;;10.49;100.00;99309.19;4993675;28;20026;-66
2022/11/19 02:54:09;;;;;;;8.27;3.67;;;;;;;10.49;100.00;99306.53;4993450;28;20033;-67
2022/11/19 02:56:48;;;;;;;8.80;4.32;;;;;;;10.45;100.00;99302.28;4993255;28;20041;-67
2022/11/19 03:04:50;;;;;;;5.90;3.35;;;;;;;10.51;100.00;99301.16;4992998;28;20061;-67
2022/11/19 03:07:18;;;;;;;9.43;4.43;;;;;;;10.48;100.00;99312.78;4993021;28;20082;-67
2022/11/19 03:09:56;;;;;;;6.78;3.58;;;;;;;10.44;100.00;99313.84;4993165;28;20026;-67
2022/11/19 03:12:45;;;;;;;9.38;4.13;;;;;;;10.44;100.00;99316.50;4992963;28;20030;-66
2022/11/19 03:18:46;;;;;;;7.68;4.10;;;;;;;10.47;100.00;99321.72;4994749;28;20049;-67
2022/11/19 03:21:21;;;;;;;6.05;3.83;;;;;;;10.45;100.00;99318.25;4992765;28;20040;-67
2022/11/19 03:23:59;;;;;;;10.60;4.15;;;;;;;10.42;100.00;99321.03;4992602;28;20026;-67
2022/11/19 03:26:32;;;;;;;7.57;3.70;;;;;;;10.36;100.00;99323.09;4992999;28;20030;-67
2022/11/19 03:29:02;;;;;;;6.75;3.83;;;;;;;10.31;100.00;99327.75;4996087;28;20063;-67
2022/11/19 03:31:30;;;;;;;8.43;3.60;;;;;;;10.37;100.00;99319.50;5012460;28;20042;-67
2022/11/19 03:34:02;;;;;;;7.90;3.78;;;;;;;10.35;100.00;99324.00;5012360;28;20056;-67
2022/11/19 03:36:35;;;;;;;7.85;3.70;;;;;;;10.29;100.00;99311.88;5011849;28;20029;-67
2022/11/19 03:39:05;;;;;;;8.07;3.83;;;;;;;10.26;100.00;99309.31;4992499;28;20030;-68
2022/11/19 03:41:33;;;;;;;9.82;3.90;;;;;;;10.33;100.00;99318.75;4992383;28;20799;-67
2022/11/19 03:44:07;;;;;;;7.28;3.45;;;;;;;10.38;100.00;99327.41;5006096;28;20350;-67
2022/11/19 03:46:36;;;;;;;8.73;4.63;;;;;;;10.36;100.00;99329.25;5011732;28;20072;-67
2022/11/19 03:49:04;;;;;;;8.95;5.30;;;;;;;10.33;100.00;99326.75;5011934;28;20033;-67
2022/11/19 03:51:58;;;;;;;9.60;4.88;;;;;;;10.34;100.00;99324.97;4972976;28;20486;-67
2022/11/19 03:54:24;;;;;;;13.23;4.45;;;;;;;10.37;100.00;99325.69;4972801;28;20034;-67
2022/11/19 03:56:50;;;;;;;8.43;4.30;;;;;;;10.39;100.00;99334.44;4972847;28;20386;-67
2022/11/19 03:59:16;;;;;;;13.88;5.18;;;;;;;10.36;100.00;99318.63;4972614;28;20058;-67
2022/11/19 04:01:45;;;;;;;15.60;4.80;;;;;;;10.40;100.00;99330.88;4989779;28;20073;-67
2022/11/19 04:06:54;;;;;;;8.98;4.95;;;;;;;10.43;100.00;99330.75;4992086;28;20042;-67
2022/11/19 04:09:19;;;;;;;7.80;4.68;;;;;;;10.41;100.00;99334.41;4991960;28;20034;-67
2022/11/19 04:11:44;;;;;;;8.88;5.15;;;;;;;10.37;100.00;99328.34;4991920;28;20060;-67
2022/11/19 04:14:10;;;;;;;7.65;4.63;;;;;;;10.40;100.00;99330.88;4991615;28;20430;-67
2022/11/19 04:16:35;;;;;;;10.15;5.50;;;;;;;10.33;100.00;99328.53;4991907;28;20815;-67
2022/11/19 04:19:01;;;;;;;7.50;4.18;;;;;;;10.30;100.00;99334.84;4991811;28;20038;-67
2022/11/19 04:21:26;;;;;;;10.18;5.00;;;;;;;10.34;100.00;99331.16;4991466;28;20033;-67
2022/11/19 04:23:52;;;;;;;8.40;5.03;;;;;;;10.35;100.00;99332.88;4991004;28;20422;-67
2022/11/19 04:26:17;;;;;;;9.88;5.07;;;;;;;10.39;100.00;99339.75;4990777;28;20034;-67
2022/11/19 04:28:42;;;;;;;9.93;4.93;;;;;;;10.37;100.00;99340.78;4990971;28;20034;-67
2022/11/19 04:31:08;;;;;;;11.23;5.75;;;;;;;10.35;100.00;99335.53;4990814;28;20034;-68
2022/11/19 04:33:33;;;;;;;11.25;6.55;;;;;;;10.41;100.00;99339.72;4990846;28;20411;-67
2022/11/19 04:35:59;;;;;;;11.30;6.18;;;;;;;10.40;100.00;99348.59;4990865;28;20109;-67
2022/11/19 04:38:24;;;;;;;9.55;5.18;;;;;;;10.39;100.00;99345.06;4994268;28;20022;-67
2022/11/19 04:40:49;;;;;;;10.80;4.88;;;;;;;10.37;100.00;99340.78;4991333;28;20433;-67
2022/11/19 04:43:15;;;;;;;9.30;5.43;;;;;;;10.37;100.00;99333.66;4990159;28;20041;-67
2022/11/19 04:45:40;;;;;;;7.43;4.65;;;;;;;10.36;100.00;99342.56;4991390;28;20489;-68
2022/11/19 04:48:06;;;;;;;10.00;5.07;;;;;;;10.38;100.00;99340.69;4991550;28;20030;-67
2022/11/19 04:50:31;;;;;;;10.38;5.53;;;;;;;10.36;100.00;99347.03;4991395;28;20037;-67
2022/11/19 04:52:58;;;;;;;9.05;5.07;;;;;;;10.37;100.00;99344.31;4991483;28;20113;-68
2022/11/19 04:55:24;;;;;;;9.95;4.47;;;;;;;10.37;100.00;99346.97;4991309;28;20026;-67
2022/11/19 04:57:50;;;;;;;10.18;4.78;;;;;;;10.39;100.00;99342.41;4991603;28;20027;-67
2022/11/19 05:00:16;;;;;;;11.93;5.65;;;;;;;10.39;100.00;99345.06;4995480;28;20056;-67
2022/11/19 05:02:42;;;;;;;8.20;4.22;;;;;;;10.38;100.00;99348.69;4995335;28;20095;-67
2022/11/19 05:05:08;;;;;;;9.90;5.30;;;;;;;10.35;100.00;99346.16;4975563;28;20451;-66
2022/11/19 05:07:33;;;;;;;10.75;5.43;;;;;;;10.37;100.00;99351.41;4974881;28;20038;-66
2022/11/19 05:09:58;;;;;;;12.50;5.07;;;;;;;10.37;100.00;99357.59;4974584;28;20023;-67
2022/11/19 05:12:24;;;;;;;8.82;4.65;;;;;;;10.39;100.00;99350.41;4991297;28;20498;-67
2022/11/19 05:14:49;;;;;;;9.57;5.38;;;;;;;10.38;100.00;99353.13;4994135;28;20057;-67
2022/11/19 05:17:15;;;;;;;12.38;5.50;;;;;;;10.31;100.00;99355.16;4994006;28;20025;-67
2022/11/19 05:19:40;;;;;;;15.20;5.80;;;;;;;10.20;100.00;99336.16;5001956;28;20040;-67
2022/11/19 05:22:05;;;;;;;16.25;5.15;;;;;;;10.38;100.00;99358.44;5014607;28;20041;-67
2022/11/19 05:24:31;;;;;;;14.13;5.30;;;;;;;10.38;100.00;99359.31;5013462;28;20401;-67
2022/11/19 05:26:56;;;;;;;12.60;5.05;;;;;;;10.37;100.00;99356.72;5014650;28;20029;-67
2022/11/19 05:29:21;;;;;;;11.85;6.43;;;;;;;10.36;100.00;99355.84;5014777;28;20041;-66
2022/11/19 05:31:47;;;;;;;8.90;4.60;;;;;;;10.39;100.00;99358.38;5012492;28;20052;-66
2022/11/19 05:34:12;;;;;;;9.85;5.32;;;;;;;10.38;100.00;99356.66;4994939;28;20026;-67
2022/11/19 05:36:38;;;;;;;18.30;7.07;;;;;;;10.43;100.00;99362.63;4994770;28;20022;-66
2022/11/19 05:39:03;;;;;;;11.27;5.47;;;;;;;10.19;100.00;99323.81;4997231;28;20023;-67
2022/11/19 05:41:29;;;;;;;10.02;5.45;;;;;;;10.41;100.00;99367.16;5005267;28;20817;-67
2022/11/19 05:43:55;;;;;;;10.20;5.72;;;;;;;10.40;100.00;99361.91;4994921;28;20057;-67
2022/11/19 05:46:20;;;;;;;11.38;5.60;;;;;;;10.42;100.00;99360.94;4994655;28;20034;-66
2022/11/19 05:48:46;;;;;;;15.85;6.70;;;;;;;10.41;100.00;99353.84;4994502;28;20026;-66
2022/11/19 05:51:14;;;;;;;10.48;6.25;;;;;;;10.51;100.00;99370.28;4996488;28;20445;-67
2022/11/19 05:53:39;;;;;;;9.75;5.22;;;;;;;10.51;100.00;99356.97;5014177;28;20068;-67
2022/11/19 05:56:05;;;;;;;11.15;5.53;;;;;;;10.50;100.00;99369.44;5014016;28;20381;-67
2022/11/19 05:58:30;;;;;;;10.13;5.43;;;;;;;10.51;100.00;99364.97;5029240;28;20544;-67
2022/11/19 06:00:58;;;;;;;12.23;6.05;;;;;;;10.47;100.00;99369.56;5013987;28;20038;-67
2022/11/19 06:03:23;;;;;;;12.55;6.68;;;;;;;10.41;100.00;99367.16;5006106;28;20359;-67
2022/11/19 06:05:49;;;;;;;13.55;6.10;;;;;;;10.40;100.00;99368.09;4994392;28;20030;-66
2022/11/19 06:08:15;;;;;;;10.68;5.60;;;;;;;10.41;100.00;99366.31;4992661;28;20034;-67
2022/11/19 06:10:40;;;;;;;12.60;7.72;;;;;;;10.39;100.00;99363.69;4993884;28;20069;-67
2022/11/19 06:13:05;;;;;;;15.80;7.43;;;;;;;10.39;100.00;99371.66;4994327;28;20022;-67
2022/11/19 06:15:31;;;;;;;18.02;7.88;;;;;;;10.37;100.00;99364.69;4993991;28;20042;-67
2022/11/19 06:17:56;;;;;;;10.63;5.47;;;;;;;10.35;100.00;99370.06;4994182;28;20532;-66
2022/11/19 06:20:22;;;;;;;11.88;5.75;;;;;;;10.33;100.00;99368.41;4994122;28;20030;-67
2022/11/19 06:22:47;;;;;;;9.35;5.55;;;;;;;10.28;100.00;99368.59;4994012;28;20023;-67
2022/11/19 06:25:13;;;;;;;10.07;5.38;;;;;;;10.22;100.00;99379.50;4994086;28;20034;-67
2022/11/19 06:27:38;;;;;;;9.27;5.32;;;;;;;10.14;100.00;99380.72;4993837;28;20173;-66
2022/11/19 06:30:05;;;;;;;10.13;5.85;;;;;;;10.08;100.00;99373.03;4993947;28;20034;-67
2022/11/19 06:32:31;;;;;;;10.55;4.88;;;;;;;10.04;100.00;99379.34;4992502;28;20034;-67
2022/11/19 06:34:56;;;;;;;9.60;4.75;;;;;;;10.05;100.00;99391.72;4994000;28;20041;-66
2022/11/19 06:37:22;;;;;;;9.35;5.28;;;;;;;10.02;100.00;99379.41;4993746;28;20030;-66
2022/11/19 06:39:47;;;;;;;9.80;5.45;;;;;;;10.10;100.00;99390.63;4995030;28;20149;-67
2022/11/19 06:44:56;;;;;;;;;;;;;;;10.17;100.00;99402.72;4994192;28;20114;-67
2022/11/19 06:47:22;;;;;;;11.38;5.38;;;;;;;10.17;100.00;99400.06;4993311;28;19913;-67
2022/11/19 06:49:47;;;;;;;10.98;5.45;;;;;;;10.22;100.00;99405.19;4993639;28;20446;-66
2022/11/19 06:52:13;;;;;;;12.15;5.72;;;;;;;10.26;100.00;99397.03;4993463;28;20100;-67
2022/11/19 06:54:38;;;;;;;11.35;5.38;;;;;;;10.29;100.00;99402.25;4993481;28;20109;-67
2022/11/19 06:57:03;;;;;;;19.58;10.43;;;;;;;10.31;100.00;99413.66;4993414;28;20084;-68
2022/11/19 06:59:29;;;;;;;13.20;7.60;;;;;;;10.29;100.00;99407.56;4993649;28;20470;-69
2022/11/19 07:01:54;;;;;;;15.88;7.32;;;;;;;10.32;100.00;99422.50;4993472;28;20030;-69
2022/11/19 07:04:20;;;;;;;24.65;10.38;;;;;;;10.32;100.00;99422.50;4993214;28;20536;-69
2022/11/19 07:06:45;;;;;;;29.17;11.93;;;;;;;10.32;100.00;99423.38;4993081;28;20033;-68
2022/11/19 07:09:11;;;;;;;36.03;14.50;;;;;;;10.36;100.00;99430.28;4991914;28;20026;-67
2022/11/19 07:11:36;;;;;;;21.63;9.18;;;;;;;10.38;100.00;99419.56;4993130;28;20509;-68
2022/11/19 07:14:02;;;;;;;19.52;10.73;;;;;;;10.42;100.00;99424.72;5006475;28;20041;-68
2022/11/19 07:16:34;;;;;;;18.70;9.35;;;;;;;10.42;100.00;99427.38;4991275;28;20169;-68
2022/11/19 07:19:01;;;;;;;13.38;6.97;;;;;;;10.37;100.00;99429.38;4993012;28;20363;-68
2022/11/19 07:21:28;;;;;;;12.30;7.55;;;;;;;10.44;100.00;99430.81;4990737;28;20034;-68
2022/11/19 07:23:57;;;;;;;11.75;7.05;;;;;;;10.42;100.00;99432.72;4993675;28;20113;-68
2022/11/19 07:26:23;;;;;;;10.48;5.38;;;;;;;10.43;100.00;99439.75;4986374;28;20068;-68
2022/11/19 07:28:49;;;;;;;11.73;5.65;;;;;;;10.46;100.00;99442.25;4973333;28;20038;-68
2022/11/19 07:31:14;;;;;;;11.07;6.25;;;;;;;10.42;100.00;99435.38;4973341;28;20030;-68
2022/11/19 07:33:40;;;;;;;12.23;6.78;;;;;;;10.40;100.00;99439.88;4989614;28;20021;-68
2022/11/19 07:36:07;;;;;;;11.65;6.22;;;;;;;10.48;100.00;99442.19;4992351;28;20030;-68
2022/11/19 07:38:33;;;;;;;13.75;6.43;;;;;;;10.49;100.00;99443.94;4981832;28;20026;-68
2022/11/19 07:40:59;;;;;;;10.73;5.70;;;;;;;10.53;100.00;99446.41;4977751;28;20129;-68
2022/11/19 07:43:24;;;;;;;12.52;7.00;;;;;;;10.60;100.00;99445.25;4992298;28;20026;-68
2022/11/19 07:45:50;;;;;;;13.10;6.30;;;;;;;10.64;100.00;99452.13;4991567;28;20026;-68
2022/11/19 07:48:15;;;;;;;13.20;6.07;;;;;;;10.75;100.00;99450.81;4992078;28;20490;-68
2022/11/19 07:50:41;;;;;;;12.20;6.38;;;;;;;10.74;100.00;99451.78;5003960;28;20092;-68
2022/11/19 07:53:07;;;;;;;12.10;7.35;;;;;;;10.82;100.00;99460.28;5000094;28;20498;-68
2022/11/19 07:55:33;;;;;;;10.43;6.60;;;;;;;10.77;100.00;99451.63;4992078;28;20108;-68
2022/11/19 07:57:59;;;;;;;13.13;7.07;;;;;;;10.83;100.00;99469.97;4991229;28;20058;-67
2022/11/19 08:00:24;;;;;;;11.82;7.43;;;;;;;10.83;100.00;99467.31;4989374;28;20442;-68
2022/11/19 08:02:50;;;;;;;14.32;6.32;;;;;;;10.76;100.00;99473.84;4991594;28;20034;-68
2022/11/19 08:05:16;;;;;;;11.55;6.40;;;;;;;10.77;100.00;99471.13;4991750;28;20465;-68
2022/11/19 08:07:42;;;;;;;14.10;7.70;;;;;;;10.80;100.00;99470.13;4990533;28;20494;-68
2022/11/19 08:10:09;;;;;;;13.07;6.93;;;;;;;10.82;100.00;99477.13;4990254;28;20030;-67
2022/11/19 08:12:35;;;;;;;9.80;5.53;;;;;;;10.81;100.00;99482.50;4989698;28;20127;-68
2022/11/19 08:15:00;;;;;;;9.70;5.57;;;;;;;10.83;100.00;99484.16;4989649;28;20061;-68
2022/11/19 08:20:09;;;;;;;;;;;;;;;10.82;100.00;99481.56;4989507;28;20036;-68
2022/11/19 08:22:36;;;;;;;8.68;5.53;;;;;;;10.74;100.00;99483.69;4989916;28;19913;-68
2022/11/19 08:25:02;;;;;;;9.05;5.72;;;;;;;10.70;100.00;99487.38;4989311;28;20061;-68
2022/11/19 08:27:27;;;;;;;10.20;5.40;;;;;;;10.75;100.00;99485.41;4989761;28;20026;-69
2022/11/19 08:29:53;;;;;;;10.50;5.72;;;;;;;10.69;100.00;99473.25;4990515;28;20034;-69
2022/11/19 08:32:18;;;;;;;10.80;6.05;;;;;;;10.76;100.00;99474.69;4985703;28;20042;-69
2022/11/19 08:34:43;;;;;;;10.77;5.63;;;;;;;10.91;100.00;99486.47;4989146;28;20022;-68
2022/11/19 08:37:12;;;;;;;8.80;5.70;;;;;;;11.05;100.00;99478.78;5003069;28;20022;-68
2022/11/19 08:39:39;;;;;;;14.00;6.78;;;;;;;11.40;100.00;99494.09;4990831;28;20042;-69
2022/11/19 08:44:50;;;;;;;20.33;10.27;;;;;;;11.99;100.00;99494.97;4984243;28;20103;-69
2022/11/19 08:47:15;;;;;;;14.52;7.30;;;;;;;12.40;100.00;99493.00;4985825;28;20034;-70
2022/11/19 08:49:41;;;;;;;13.52;6.50;;;;;;;12.36;100.00;99480.72;4984853;28;20022;-70
2022/11/19 08:52:07;;;;;;;10.02;5.25;;;;;;;12.33;100.00;99491.53;4985557;28;20038;-70
2022/11/19 08:54:32;;;;;;;7.60;4.72;;;;;;;12.25;100.00;99491.94;4989667;28;20068;-69
2022/11/19 08:56:58;;;;;;;10.90;5.03;;;;;;;12.18;100.00;99486.94;5001475;28;20041;-70
2022/11/19 08:59:24;;;;;;;11.52;5.43;;;;;;;12.16;100.00;99496.84;4985586;28;20030;-70
2022/11/19 09:01:49;;;;;;;18.17;6.32;;;;;;;12.06;100.00;99482.22;4987931;28;20547;-70
2022/11/19 09:04:15;;;;;;;8.68;4.80;;;;;;;12.07;100.00;99494.59;5002763;28;20035;-70
2022/11/19 09:06:41;;;;;;;8.10;4.22;;;;;;;12.04;100.00;99495.63;4987146;28;20022;-70
2022/11/19 09:09:06;;;;;;;6.85;5.03;;;;;;;11.95;100.00;99488.03;5002412;28;20497;-70
2022/11/19 09:11:32;;;;;;;8.05;4.97;;;;;;;11.95;100.00;99490.69;4988736;28;20075;-70
2022/11/19 09:13:58;;;;;;;8.82;4.07;;;;;;;11.88;100.00;99502.56;4987502;28;20425;-70
2022/11/19 09:16:23;;;;;;;6.70;4.35;;;;;;;11.65;100.00;99489.44;4990801;28;20447;-69
2022/11/19 09:18:49;;;;;;;6.50;4.32;;;;;;;11.59;100.00;99503.00;4984014;28;20026;-70
2022/11/19 09:21:14;;;;;;;6.55;3.90;;;;;;;11.58;100.00;99495.94;4989597;28;20080;-70
2022/11/19 09:23:41;;;;;;;8.52;4.00;;;;;;;11.61;100.00;99501.13;4989403;28;20030;-70
2022/11/19 09:26:12;;;;;;;6.57;3.88;;;;;;;11.59;100.00;99503.00;4986462;28;20137;-71
2022/11/19 09:28:37;;;;;;;6.22;3.60;;;;;;;11.59;100.00;99513.66;4989728;28;20081;-70
2022/11/19 09:31:07;;;;;;;7.05;3.83;;;;;;;11.58;100.00;99504.78;4993028;28;20022;-70
2022/11/19 09:33:35;;;;;;;10.23;4.05;;;;;;;11.54;100.00;99515.66;4986116;28;20029;-70
2022/11/19 09:36:01;;;;;;;6.78;3.47;;;;;;;11.53;100.00;99513.94;4988011;28;20108;-70
2022/11/19 09:38:27;;;;;;;5.95;3.28;;;;;;;11.66;100.00;99520.47;4976129;28;20153;-70
2022/11/19 09:40:54;;;;;;;6.88;3.65;;;;;;;11.78;100.00;99520.78;4999219;28;20517;-70
2022/11/19 09:43:44;;;;;;;6.75;3.45;;;;;;;11.74;100.00;99513.88;4989295;28;20489;-70
2022/11/19 09:46:13;;;;;;;28.15;3.53;;;;;;;11.82;100.00;99526.84;4995787;28;20034;-70
2022/11/19 09:48:39;;;;;;;5.22;3.20;;;;;;;11.81;100.00;99527.78;4990284;28;20030;-70
2022/11/19 09:51:12;;;;;;;7.90;3.90;;;;;;;11.74;100.00;99527.19;4993403;28;20026;-69
2022/11/19 09:54:11;;;;;;;10.13;3.47;;;;;;;11.70;100.00;99532.72;4991160;28;20030;-69
2022/11/19 09:56:40;;;;;;;6.30;2.97;;;;;;;11.70;100.00;99527.38;4989195;28;20097;-69
2022/11/19 09:59:22;;;;;;;3.45;2.30;;;;;;;11.55;100.00;99520.03;4994085;28;20109;-70
2022/11/19 10:01:48;;;;;;;5.95;2.63;;;;;;;11.53;100.00;99513.94;4994149;28;20030;-70
2022/11/19 10:04:17;;;;;;;7.82;3.88;;;;;;;11.51;100.00;99534.44;4993643;28;20061;-70
2022/11/19 10:07:06;;;;;;;7.15;3.65;;;;;;;11.36;100.00;99528.00;4994337;28;20026;-70
2022/11/19 10:10:06;;;;;;;6.07;3.58;;;;;;;11.29;100.00;99536.28;4994089;28;20030;-70
2022/11/19 10:12:43;;;;;;;7.95;3.80;;;;;;;11.19;100.00;99542.94;4994450;28;20084;-70
2022/11/19 10:15:21;;;;;;;7.00;3.42;;;;;;;11.19;100.00;99540.28;4993945;28;20126;-70
2022/11/19 10:18:05;;;;;;;4.70;2.55;;;;;;;11.22;100.00;99541.00;4994286;28;20367;-70
2022/11/19 10:20:47;;;;;;;6.00;2.53;;;;;;;11.25;100.00;99537.38;4993041;28;20069;-70
2022/11/19 10:23:29;;;;;;;6.13;2.80;;;;;;;11.18;100.00;99531.44;4990162;28;20045;-70
2022/11/19 10:26:02;;;;;;;7.00;2.85;;;;;;;11.27;100.00;99538.16;4985987;28;20092;-70
2022/11/19 10:28:34;;;;;;;14.20;7.65;;;;;;;11.30;100.00;99535.38;4990292;28;20034;-70
2022/11/19 10:31:25;;;;;;;8.13;4.30;;;;;;;11.28;100.00;99530.13;4995922;28;20030;-70
2022/11/19 10:34:28;;;;;;;6.90;3.80;;;;;;;11.29;100.00;99533.63;4990483;28;20035;-70
2022/11/19 10:37:00;;;;;;;8.07;3.80;;;;;;;11.47;100.00;99540.81;4951997;28;20092;-70
2022/11/19 10:39:35;;;;;;;6.75;3.90;;;;;;;11.56;100.00;99529.78;4976066;28;20053;-70
2022/11/19 10:42:24;;;;;;;7.88;4.18;;;;;;;11.73;100.00;99524.56;4989568;28;20105;-70
2022/11/19 10:45:02;;;;;;;7.28;4.40;;;;;;;11.83;100.00;99523.22;4990963;28;20041;-69
2022/11/19 10:47:36;;;;;;;8.73;3.70;;;;;;;11.75;100.00;99512.06;4990698;28;20027;-70
2022/11/19 10:50:02;;;;;;;5.93;3.58;;;;;;;11.75;100.00;99520.91;4993302;28;20037;-70
2022/11/19 10:52:36;;;;;;;5.88;3.25;;;;;;;11.61;100.00;99522.44;4992732;28;20073;-70
2022/11/19 10:55:16;;;;;;;7.65;3.83;;;;;;;11.65;100.00;99519.59;4989770;28;20042;-70
2022/11/19 10:57:44;;;;;;;7.93;4.72;;;;;;;11.68;100.00;99513.25;4991708;28;20453;-70
2022/11/19 11:00:10;;;;;;;9.57;4.88;;;;;;;11.80;100.00;99516.25;4991939;28;20030;-71
2022/11/19 11:02:46;;;;;;;7.53;4.18;;;;;;;11.82;100.00;99516.19;4988768;28;20078;-71
2022/11/19 11:05:14;;;;;;;7.93;4.15;;;;;;;11.77;100.00;99491.53;4987677;28;20061;-71
2022/11/19 11:07:52;;;;;;;7.47;4.55;;;;;;;11.93;100.00;99513.88;4989635;28;20481;-69
2022/11/19 11:10:43;;;;;;;8.27;3.97;;;;;;;11.99;100.00;99508.28;4989075;28;20041;-69
2022/11/19 11:16:24;;;;;;;7.30;3.45;;;;;;;12.32;100.00;99511.16;4989059;28;20221;-71
2022/11/19 11:18:52;;;;;;;5.28;3.30;;;;;;;12.34;100.00;99506.63;4990324;28;20573;-71
2022/11/19 11:21:31;;;;;;;6.32;3.05;;;;;;;12.40;100.00;99491.19;4990781;28;20116;-71
2022/11/19 11:24:03;;;;;;;6.78;3.15;;;;;;;12.53;100.00;99500.34;5003772;28;20239;-72
2022/11/19 11:26:32;;;;;;;8.38;4.32;;;;;;;12.63;100.00;99504.28;4986602;28;20088;-71
2022/11/19 11:29:01;;;;;;;8.18;3.83;;;;;;;12.78;100.00;99500.00;4989258;28;20023;-71
2022/11/19 11:31:34;;;;;;;7.88;4.30;;;;;;;13.09;100.00;99495.75;4989227;28;20438;-71
2022/11/19 11:34:01;;;;;;;10.32;4.15;;;;;;;13.52;100.00;99485.50;5002164;28;20030;-71
2022/11/19 11:36:29;;;;;;;10.38;4.85;;;;;;;14.12;100.00;99485.69;5002568;28;20438;-72
2022/11/19 11:38:58;;;;;;;11.40;4.93;;;;;;;14.40;95.53;99485.91;4987007;28;20612;-70
2022/11/19 11:41:36;;;;;;;9.55;4.53;;;;;;;14.70;93.15;99491.34;4986162;28;20057;-71
2022/11/19 11:44:14;;;;;;;5.07;3.00;;;;;;;14.63;88.86;99498.00;4975323;28;20023;-71
2022/11/19 11:46:42;;;;;;;7.15;2.90;;;;;;;14.48;88.74;99499.72;4987960;28;20141;-71
2022/11/19 11:49:41;;;;;;;8.05;4.93;;;;;;;14.32;87.47;99492.66;4988991;28;20621;-71
2022/11/19 11:52:24;;;;;;;6.25;3.15;;;;;;;14.14;89.19;99490.97;4977080;28;20037;-71
2022/11/19 11:55:14;;;;;;;11.23;3.53;;;;;;;13.96;90.15;99486.63;4986934;28;20045;-72
2022/11/19 11:57:54;;;;;;;8.60;3.92;;;;;;;13.78;91.53;99490.31;4977008;28;20030;-70
2022/11/19 12:00:23;;;;;;;9.45;4.10;;;;;;;13.63;92.26;99497.34;4987600;28;20026;-71
2022/11/19 12:03:18;;;;;;;5.10;3.20;;;;;;;13.49;93.12;99493.66;4988372;28;20599;-71
2022/11/19 12:05:49;;;;;;;4.65;2.95;;;;;;;13.38;93.13;99499.56;4989734;28;20030;-71